Aiea, Hawaii
Current Conditions -  °F | °C
As of 12:53 AM on Thursday 27 Nov 2014 (Local Time) from PHNL Reporting Station
Broken Clouds Broken Clouds  
Wind Chill: 75°   Ceiling: 5000
Heat Index: 75°   Visibility: 10mi
Dew Point: 60°   Wind: 16mph
Humidity: 60%   Direction: 40°NE
Pressure: 30.07"   Gusts: 25mph
Location:  21.38°N, 157.93°W
Report Text: PHNL 271053Z 04014G22KT 10SM FEW031 SCT043 BKN050 24/16 A3007 RMK AO2 SLP182 T02390156
Loading
Personal Weather Stations






























Interactive Weather Map New forecast layout! Learn more

10-Day Weather Forecast

Advertisements
Track Severe Weather on mobile